Time;durP1;ratioP1;P1;durP2;ratioP2;P2;SDS_P1;SDS_P2;PMS_P1;PMS_P2;Temp;Humidity;BMP_temperature;BMP_pressure;BME280_temperature;BME280_humidity;BME280_pressure;Samples;Min_cycle;Max_cycle;Signal;HPM_P1;HPM_P2
2022/04/11 00:02:07;;;;;;;;;;;;;;;6.43;53.09;100211.47;4364119;32;34625;-91
2022/04/11 00:04:40;;;;;;;;;;;;;;;6.56;52.44;100211.44;4360042;32;33802;-92
2022/04/11 00:07:11;;;;;;;;;;;;;;;6.80;52.21;100201.75;4381189;32;32946;-91
2022/04/11 00:09:42;;;;;;;;;;;;;;;6.94;51.87;100207.75;4372565;32;34656;-91
2022/04/11 00:12:11;;;;;;;;;;;;;;;6.97;51.79;100204.00;4364449;32;35416;-91
2022/04/11 00:14:38;;;;;;;;;;;;;;;6.79;52.20;100203.56;4373689;32;34657;-92
2022/04/11 00:17:08;;;;;;;;;;;;;;;6.89;52.09;100219.63;4370995;32;32356;-91
2022/04/11 00:19:55;;;;;;;;;;;;;;;6.54;52.81;100213.34;4372866;32;33292;-92
2022/04/11 00:22:26;;;;;;;;;;;;;;;6.49;52.86;100218.97;4370482;32;34276;-91
2022/04/11 00:25:13;;;;;;;;;;;;;;;6.30;53.52;100218.56;4369453;32;33323;-92
2022/04/11 00:27:42;;;;;;;;;;;;;;;6.59;52.73;100220.00;4368595;32;32653;-91
2022/04/11 00:30:29;;;;;;;;;;;;;;;6.22;53.68;100215.62;4377778;32;34154;-90
2022/04/11 00:32:59;;;;;;;;;;;;;;;6.31;53.58;100224.69;4383349;32;34972;-92
2022/04/11 00:35:48;;;;;;;;;;;;;;;6.33;53.65;100228.91;4359763;32;33495;-91
2022/04/11 00:38:20;;;;;;;;;;;;;;;6.34;53.81;100222.69;4364866;32;33557;-91
2022/04/11 00:40:49;;;;;;;;;;;;;;;6.21;54.31;100232.41;4358076;32;33366;-92
2022/04/11 00:43:39;;;;;;;;;;;;;;;6.33;53.69;100225.44;4372969;32;33914;-92
2022/04/11 00:46:07;;;;;;;;;;;;;;;6.10;54.20;100229.69;4375015;32;33606;-91
2022/04/11 00:48:43;;;;;;;;;;;;;;;6.18;53.86;100229.16;4389820;32;32372;-91
2022/04/11 00:51:35;;;;;;;;;;;;;;;5.83;55.03;100236.84;4373934;32;33095;-89
2022/04/11 00:54:07;;;;;;;;;;;;;;;6.12;54.10;100235.69;4383062;32;35638;-91
2022/04/11 00:56:55;;;;;;;;;;;;;;;5.88;54.70;100237.37;4372584;32;34716;-92
2022/04/11 00:59:43;;;;;;;;;;;;;;;6.08;54.38;100236.84;4381475;32;33463;-91
2022/04/11 01:02:15;;;;;;;;;;;;;;;5.89;54.97;100246.16;4377624;32;33500;-92
2022/04/11 01:04:48;;;;;;;;;;;;;;;6.06;54.33;100245.84;4382237;32;34903;-90
2022/04/11 01:07:36;;;;;;;;;;;;;;;5.92;54.70;100249.44;4381430;32;34168;-91
2022/04/11 01:10:06;;;;;;;;;;;;;;;6.10;54.07;100242.88;4346192;32;32062;-91
2022/04/11 01:12:55;;;;;;;;;;;;;;;6.02;54.30;100244.34;4369232;32;34921;-90
2022/04/11 01:15:27;;;;;;;;;;;;;;;6.06;54.14;100236.09;4371423;32;35214;-92
2022/04/11 01:18:11;;;;;;;;;;;;;;;6.03;54.03;100238.13;4374559;32;34858;-92
2022/04/11 01:20:44;;;;;;;;;;;;;;;6.30;53.28;100231.78;4362335;32;34353;-90
2022/04/11 01:23:15;;;;;;;;;;;;;;;5.76;54.97;100237.31;4363643;32;33755;-92
2022/04/11 01:25:50;;;;;;;;;;;;;;;5.99;54.36;100237.50;4383971;32;34077;-90
2022/04/11 01:28:22;;;;;;;;;;;;;;;6.13;53.87;100244.44;4374462;32;33467;-90
2022/04/11 01:30:52;;;;;;;;;;;;;;;5.73;54.91;100245.44;4383108;32;32710;-91
2022/04/11 01:33:40;;;;;;;;;;;;;;;6.12;54.08;100253.31;4370260;32;33670;-92
2022/04/11 01:36:13;;;;;;;;;;;;;;;6.07;53.97;100253.66;4365250;32;36330;-90
2022/04/11 01:39:01;;;;;;;;;;;;;;;6.12;54.07;100262.12;4376238;32;34989;-92
2022/04/11 01:41:45;;;;;;;;;;;;;;;5.91;54.45;100257.44;4381093;32;34098;-90
2022/04/11 01:44:18;;;;;;;;;;;;;;;6.16;53.80;100266.22;4373462;32;33678;-90
2022/04/11 01:46:50;;;;;;;;;;;;;;;5.90;54.54;100264.53;4385476;32;35427;-91
2022/04/11 01:49:19;;;;;;;;;;;;;;;6.21;53.82;100269.41;4363450;32;33374;-90
2022/04/11 01:51:55;;;;;;;;;;;;;;;6.28;53.50;100264.53;4373327;32;33433;-91
2022/04/11 01:54:26;;;;;;;;;;;;;;;6.40;53.22;100271.59;4358083;32;32930;-90
2022/04/11 01:56:56;;;;;;;;;;;;;;;6.41;53.21;100270.66;4371995;32;34901;-90
2022/04/11 01:59:39;;;;;;;;;;;;;;;6.39;53.23;100272.56;4383913;32;34188;-92
2022/04/11 02:02:26;;;;;;;;;;;;;;;6.39;53.12;100272.56;4361542;32;32356;-91
2022/04/11 02:05:11;;;;;;;;;;;;;;;6.31;53.19;100275.75;4373393;32;34411;-92
2022/04/11 02:07:39;;;;;;;;;;;;;;;6.30;53.23;100275.84;4372063;32;34796;-91
2022/04/11 02:10:12;;;;;;;;;;;;;;;6.25;53.14;100270.87;4371323;32;35832;-90
2022/04/11 02:12:43;;;;;;;;;;;;;;;6.32;53.19;100266.88;4376085;32;32709;-91
2022/04/11 02:15:17;;;;;;;;;;;;;;;6.17;53.85;100277.66;4372012;32;33596;-90
2022/04/11 02:17:46;;;;;;;;;;;;;;;6.03;54.13;100281.22;4368486;32;34085;-93
2022/04/11 02:20:17;;;;;;;;;;;;;;;6.18;53.71;100281.97;4384986;32;34592;-93
2022/04/11 02:22:49;;;;;;;;;;;;;;;6.09;53.95;100278.19;4383311;32;32339;-92
2022/04/11 02:25:34;;;;;;;;;;;;;;;6.15;53.99;100287.47;4370634;32;32421;-91
2022/04/11 02:28:25;;;;;;;;;;;;;;;5.94;54.49;100279.22;4379919;32;35437;-91
2022/04/11 02:31:34;;;;;;;;;;;;;;;6.09;54.21;100290.53;4380104;32;33971;-92
2022/04/11 02:34:03;;;;;;;;;;;;;;;6.09;54.08;100288.75;4375492;32;32928;-90
2022/04/11 02:36:36;;;;;;;;;;;;;;;6.04;54.53;100282.91;4382256;32;33940;-91
2022/04/11 02:39:31;;;;;;;;;;;;;;;6.07;54.28;100287.16;4373281;32;34873;-91
2022/04/11 02:42:26;;;;;;;;;;;;;;;5.90;55.16;100284.81;4382164;32;34440;-90
2022/04/11 02:45:14;;;;;;;;;;;;;;;6.07;54.77;100287.16;4382810;32;33546;-92
2022/04/11 02:47:44;;;;;;;;;;;;;;;5.75;55.47;100296.34;4381023;32;33091;-91
2022/04/11 02:50:32;;;;;;;;;;;;;;;6.01;54.74;100290.19;4380786;32;34305;-92
2022/04/11 02:53:05;;;;;;;;;;;;;;;6.12;54.46;100298.22;4386849;32;33584;-91
2022/04/11 02:55:54;;;;;;;;;;;;;;;5.96;54.81;100298.44;4372393;32;34012;-92
2022/04/11 02:58:30;;;;;;;;;;;;;;;6.01;54.65;100300.75;4373624;32;33569;-90
2022/04/11 03:01:14;;;;;;;;;;;;;;;6.04;54.51;100303.19;4382036;32;35639;-92
2022/04/11 03:03:48;;;;;;;;;;;;;;;5.90;54.83;100308.56;4385482;32;33350;-91
2022/04/11 03:06:24;;;;;;;;;;;;;;;5.89;54.74;100309.50;4366557;32;33196;-92
2022/04/11 03:08:57;;;;;;;;;;;;;;;5.97;54.54;100302.75;4369622;32;32777;-90
2022/04/11 03:11:25;;;;;;;;;;;;;;;5.89;54.92;100312.97;4370180;32;37110;-92
2022/04/11 03:13:59;;;;;;;;;;;;;;;5.66;55.59;100310.16;4383295;32;34628;-91
2022/04/11 03:16:46;;;;;;;;;;;;;;;5.64;56.08;100312.91;4362833;32;32950;-92
2022/04/11 03:19:21;;;;;;;;;;;;;;;5.51;56.04;100308.53;4375006;32;33858;-92
2022/04/11 03:22:16;;;;;;;;;;;;;;;5.78;55.66;100315.47;4378203;32;35033;-91
2022/04/11 03:24:50;;;;;;;;;;;;;;;5.68;55.93;100321.47;4399633;32;34623;-93
2022/04/11 03:27:18;;;;;;;;;;;;;;;5.39;56.43;100324.31;4386428;32;33095;-91
2022/04/11 03:29:47;;;;;;;;;;;;;;;5.61;56.03;100317.53;4386352;32;34227;-92
2022/04/11 03:32:43;;;;;;;;;;;;;;;5.46;56.53;100323.81;4385845;32;35030;-91
2022/04/11 03:35:16;;;;;;;;;;;;;;;5.70;55.91;100322.22;4399282;32;34662;-93
2022/04/11 03:38:04;;;;;;;;;;;;;;;5.50;56.31;100322.69;4376059;32;32469;-91
2022/04/11 03:41:13;;;;;;;;;;;;;;;5.58;56.03;100329.13;4390383;32;33449;-92
2022/04/11 03:43:42;;;;;;;;;;;;;;;5.57;56.30;100332.72;4399170;32;34616;-92
2022/04/11 03:46:33;;;;;;;;;;;;;;;5.82;55.62;100338.13;4398858;32;33426;-91
2022/04/11 03:49:22;;;;;;;;;;;;;;;5.99;55.02;100339.63;4399435;32;33382;-91
2022/04/11 03:51:58;;;;;;;;;;;;;;;6.06;54.80;100344.41;4387792;32;34962;-92
2022/04/11 03:54:33;;;;;;;;;;;;;;;6.09;54.66;100346.00;4374383;32;34993;-91
2022/04/11 03:57:42;;;;;;;;;;;;;;;6.01;54.79;100348.31;4398939;32;33754;-92
2022/04/11 04:00:12;;;;;;;;;;;;;;;5.97;54.88;100352.94;4387181;32;32190;-92
2022/04/11 04:03:14;;;;;;;;;;;;;;;6.00;54.73;100351.91;4399545;32;34191;-92
2022/04/11 04:05:47;;;;;;;;;;;;;;;5.62;56.14;100343.84;4399143;32;34728;-91
2022/04/11 04:08:25;;;;;;;;;;;;;;;5.70;55.77;100351.25;4386062;32;33571;-92
2022/04/11 04:11:11;;;;;;;;;;;;;;;5.79;55.53;100358.59;4398640;32;33092;-92
2022/04/11 04:14:03;;;;;;;;;;;;;;;5.61;55.86;100359.75;4399093;32;32142;-91
2022/04/11 04:16:51;;;;;;;;;;;;;;;5.85;55.39;100360.81;4399710;32;35492;-91
2022/04/11 04:19:39;;;;;;;;;;;;;;;5.77;55.96;100361.28;4386371;32;33487;-93
2022/04/11 04:22:27;;;;;;;;;;;;;;;5.55;56.72;100366.28;4389059;32;32804;-92
2022/04/11 04:25:13;;;;;;;;;;;;;;;5.57;56.53;100374.09;4398405;32;33849;-91
2022/04/11 04:27:56;;;;;;;;;;;;;;;5.77;56.17;100384.22;4374222;32;35188;-92
2022/04/11 04:30:29;;;;;;;;;;;;;;;5.97;55.30;100376.69;4386342;32;33365;-90
2022/04/11 04:32:59;;;;;;;;;;;;;;;5.91;55.50;100384.19;4398992;32;32616;-91
2022/04/11 04:35:46;;;;;;;;;;;;;;;5.87;55.75;100377.44;4398898;32;32740;-91
2022/04/11 04:38:27;;;;;;;;;;;;;;;5.82;56.08;100384.78;4398906;32;35468;-91
2022/04/11 04:40:58;;;;;;;;;;;;;;;5.74;56.12;100381.75;4398446;32;33965;-92
2022/04/11 04:44:01;;;;;;;;;;;;;;;5.92;55.73;100386.75;4398550;32;32185;-92
2022/04/11 04:46:49;;;;;;;;;;;;;;;5.98;55.45;100383.66;4388741;32;34983;-92
2022/04/11 04:49:22;;;;;;;;;;;;;;;5.83;56.10;100387.34;4400093;32;35427;-91
2022/04/11 04:51:50;;;;;;;;;;;;;;;5.89;56.08;100392.19;4398862;32;34464;-91
2022/04/11 04:54:58;;;;;;;;;;;;;;;5.95;56.17;100389.16;4400128;32;33569;-92
2022/04/11 04:57:50;;;;;;;;;;;;;;;6.05;56.17;100398.19;4388699;32;33745;-90
2022/04/11 05:00:39;;;;;;;;;;;;;;;6.15;55.96;100401.06;4398512;32;34079;-91
2022/04/11 05:03:16;;;;;;;;;;;;;;;6.22;55.78;100392.63;4400155;32;33913;-91
2022/04/11 05:05:49;;;;;;;;;;;;;;;6.39;55.41;100394.13;4373855;32;33048;-91
2022/04/11 05:08:42;;;;;;;;;;;;;;;6.37;55.17;100396.03;4388952;32;34401;-91
2022/04/11 05:11:30;;;;;;;;;;;;;;;6.22;55.37;100400.53;4399646;32;35166;-91
2022/04/11 05:14:02;;;;;;;;;;;;;;;6.40;55.41;100399.31;4399885;32;34308;-91
2022/04/11 05:16:32;;;;;;;;;;;;;;;6.56;54.92;100397.34;4398793;32;32420;-91
2022/04/11 05:19:07;;;;;;;;;;;;;;;6.64;54.67;100402.91;4398333;32;34148;-91
2022/04/11 05:21:36;;;;;;;;;;;;;;;6.71;54.80;100396.25;4397884;32;35046;-91
2022/04/11 05:24:25;;;;;;;;;;;;;;;6.82;54.59;100395.53;4399336;32;35365;-91
2022/04/11 05:27:17;;;;;;;;;;;;;;;6.83;55.01;100397.22;4400093;32;33478;-91
2022/04/11 05:29:47;;;;;;;;;;;;;;;7.04;54.12;100398.34;4385492;32;32675;-91
2022/04/11 05:32:38;;;;;;;;;;;;;;;7.05;54.38;100402.69;4387693;32;34083;-91
2022/04/11 05:35:34;;;;;;;;;;;;;;;6.98;53.92;100397.00;4399769;32;34714;-92
2022/04/11 05:38:07;;;;;;;;;;;;;;;7.38;53.02;100401.16;4398561;32;32706;-91
2022/04/11 05:40:41;;;;;;;;;;;;;;;7.46;52.92;100404.09;4385636;32;32308;-90
2022/04/11 05:43:33;;;;;;;;;;;;;;;7.68;52.43;100412.22;4364503;32;34981;-91
2022/04/11 05:46:12;;;;;;;;;;;;;;;7.77;51.66;100408.88;4392266;32;34558;-92
2022/04/11 05:48:50;;;;;;;;;;;;;;;7.63;52.13;100405.56;4398449;32;33610;-91
2022/04/11 05:51:34;;;;;;;;;;;;;;;7.82;51.54;100408.56;4395809;32;33894;-91
2022/04/11 05:54:10;;;;;;;;;;;;;;;7.92;51.05;100405.09;4385258;32;35057;-91
2022/04/11 05:56:43;;;;;;;;;;;;;;;7.82;51.93;100411.22;4397655;32;33180;-92
2022/04/11 05:59:18;;;;;;;;;;;;;;;8.22;50.87;100415.28;4386550;32;32842;-90
2022/04/11 06:01:48;;;;;;;;;;;;;;;8.19;50.37;100412.88;4397951;32;33602;-90
2022/04/11 06:04:23;;;;;;;;;;;;;;;8.40;49.73;100408.59;4386232;32;36027;-90
2022/04/11 06:06:55;;;;;;;;;;;;;;;8.29;49.97;100409.38;4397928;32;35233;-91
2022/04/11 06:09:24;;;;;;;;;;;;;;;8.40;49.54;100408.59;4372748;32;34468;-89
2022/04/11 06:11:57;;;;;;;;;;;;;;;8.69;48.32;100400.13;4385410;32;33150;-91
2022/04/11 06:14:43;;;;;;;;;;;;;;;8.64;49.10;100397.81;4399304;32;36139;-89
2022/04/11 06:17:32;;;;;;;;;;;;;;;8.69;49.73;100398.28;4388225;32;34030;-90
2022/04/11 06:20:22;;;;;;;;;;;;;;;8.06;50.99;100398.78;4398023;32;34340;-90
2022/04/11 06:22:50;;;;;;;;;;;;;;;8.83;49.41;100394.56;4384994;32;33841;-91
2022/04/11 06:25:18;;;;;;;;;;;;;;;9.01;48.56;100390.50;4398784;32;35345;-90
2022/04/11 06:28:10;;;;;;;;;;;;;;;9.10;48.64;100395.91;4387977;32;34575;-89
2022/04/11 06:31:00;;;;;;;;;;;;;;;8.47;49.94;100397.41;4397739;32;32961;-88
2022/04/11 06:33:32;;;;;;;;;;;;;;;9.32;48.26;100389.75;4399083;32;34815;-84
2022/04/11 06:36:24;;;;;;;;;;;;;;;9.39;47.55;100394.47;4395247;32;35043;-89
2022/04/11 06:38:56;;;;;;;;;;;;;;;9.27;48.04;100391.94;4385983;32;34438;-87
2022/04/11 06:41:29;;;;;;;;;;;;;;;9.29;47.70;100393.53;4385679;32;33936;-87
2022/04/11 06:43:59;;;;;;;;;;;;;;;9.39;48.02;100390.97;4372583;32;33014;-86
2022/04/11 06:46:29;;;;;;;;;;;;;;;9.53;46.79;100394.19;4398729;32;37166;-83
2022/04/11 06:49:01;;;;;;;;;;;;;;;9.38;47.48;100392.75;4385763;32;34744;-90
2022/04/11 06:51:46;;;;;;;;;;;;;;;9.58;47.06;100394.69;4397400;32;34307;-89
2022/04/11 06:54:22;;;;;;;;;;;;;;;9.63;46.74;100408.44;4396668;32;34338;-90
2022/04/11 06:56:49;;;;;;;;;;;;;;;9.73;47.26;100403.22;4383680;32;34762;-92
2022/04/11 06:59:26;;;;;;;;;;;;;;;9.65;47.11;100408.31;4395334;32;34808;-91
2022/04/11 07:01:54;;;;;;;;;;;;;;;9.72;47.70;100410.34;4397642;32;32770;-91
2022/04/11 07:04:22;;;;;;;;;;;;;;;9.79;46.83;100416.00;4370787;32;33389;-89
2022/04/11 07:06:51;;;;;;;;;;;;;;;10.16;46.08;100412.06;4370597;32;34539;-90
2022/04/11 07:09:18;;;;;;;;;;;;;;;10.05;46.69;100410.28;4383404;32;33812;-92
2022/04/11 07:11:47;;;;;;;;;;;;;;;10.15;47.78;100413.03;4396219;32;33734;-91
2022/04/11 07:14:15;;;;;;;;;;;;;;;10.29;46.98;100412.75;4396330;32;34006;-91
2022/04/11 07:16:58;;;;;;;;;;;;;;;10.43;47.32;100418.59;4399079;32;35771;-91
2022/04/11 07:19:28;;;;;;;;;;;;;;;10.25;46.76;100414.81;4373049;32;34404;-91
2022/04/11 07:21:58;;;;;;;;;;;;;;;10.35;46.68;100417.53;4383975;32;33585;-91
2022/04/11 07:24:26;;;;;;;;;;;;;;;10.42;47.10;100418.72;4398121;32;35376;-89
2022/04/11 07:27:14;;;;;;;;;;;;;;;10.36;47.46;100413.91;4398195;32;34860;-88
2022/04/11 07:29:42;;;;;;;;;;;;;;;10.73;46.93;100421.31;4384741;32;35065;-90
2022/04/11 07:32:11;;;;;;;;;;;;;;;10.60;47.41;100414.50;4396536;32;34134;-88
2022/04/11 07:34:48;;;;;;;;;;;;;;;10.33;47.12;100416.81;4395548;32;32987;-89
2022/04/11 07:37:35;;;;;;;;;;;;;;;10.74;47.08;100404.38;4386326;32;35689;-87
2022/04/11 07:40:05;;;;;;;;;;;;;;;10.74;46.61;100411.53;4370687;32;35033;-89
2022/04/11 07:42:52;;;;;;;;;;;;;;;11.01;46.12;100404.69;4383666;32;33222;-87
2022/04/11 07:45:22;;;;;;;;;;;;;;;11.02;45.77;100410.88;4370986;32;33723;-86
2022/04/11 07:47:53;;;;;;;;;;;;;;;11.14;45.41;100415.94;4396708;32;35514;-89
2022/04/11 07:50:24;;;;;;;;;;;;;;;11.17;45.23;100406.84;4396615;32;34932;-87
2022/04/11 07:53:11;;;;;;;;;;;;;;;11.22;44.57;100399.31;4384199;32;32746;-90
2022/04/11 07:55:45;;;;;;;;;;;;;;;11.36;45.63;100402.47;4396267;32;34664;-90
2022/04/11 07:58:18;;;;;;;;;;;;;;;11.05;44.11;100411.41;4383461;32;34532;-89
2022/04/11 08:00:52;;;;;;;;;;;;;;;11.45;44.30;100397.16;4395462;32;33897;-89
2022/04/11 08:03:41;;;;;;;;;;;;;;;11.30;45.04;100407.50;4386463;32;32875;-92
2022/04/11 08:06:10;;;;;;;;;;;;;;;11.42;43.73;100397.44;4396504;32;32936;-91
2022/04/11 08:08:44;;;;;;;;;;;;;;;11.28;44.49;100407.63;4386133;32;35282;-91
2022/04/11 08:11:31;;;;;;;;;;;;;;;11.25;44.93;100402.56;4385323;32;34830;-91
2022/04/11 08:14:05;;;;;;;;;;;;;;;11.55;44.64;100408.69;4398541;32;32953;-90
2022/04/11 08:16:36;;;;;;;;;;;;;;;11.27;45.87;100405.06;4383371;32;33913;-90
2022/04/11 08:19:08;;;;;;;;;;;;;;;11.93;45.85;100394.66;4399851;32;34634;-89
2022/04/11 08:21:38;;;;;;;;;;;;;;;11.71;43.03;100406.37;4397466;32;34182;-88
2022/04/11 08:24:08;;;;;;;;;;;;;;;12.11;42.85;100401.00;4399969;32;34049;-89
2022/04/11 08:26:58;;;;;;;;;;;;;;;12.18;42.91;100405.63;4399604;32;36088;-88
2022/04/11 08:29:50;;;;;;;;;;;;;;;11.94;45.70;100413.19;4398643;32;34181;-90
2022/04/11 08:32:20;;;;;;;;;;;;;;;12.30;42.55;100401.00;4398724;32;35460;-87
2022/04/11 08:34:49;;;;;;;;;;;;;;;12.12;41.84;100405.34;4396783;32;32644;-88
2022/04/11 08:37:21;;;;;;;;;;;;;;;12.66;41.10;100400.28;4398437;32;34931;-86
2022/04/11 08:39:49;;;;;;;;;;;;;;;12.57;42.70;100409.13;4398004;32;34714;-88
2022/04/11 08:42:33;;;;;;;;;;;;;;;12.45;43.25;100402.22;4398635;32;35327;-89
2022/04/11 08:45:01;;;;;;;;;;;;;;;12.66;42.64;100403.75;4397087;32;33341;-89
2022/04/11 08:47:29;;;;;;;;;;;;;;;12.91;40.62;100399.63;4373112;32;33444;-88
2022/04/11 08:50:18;;;;;;;;;;;;;;;12.68;41.58;100407.13;4386865;32;33955;-88
2022/04/11 08:53:06;;;;;;;;;;;;;;;13.00;41.94;100402.31;4398862;32;34951;-88
2022/04/11 08:55:35;;;;;;;;;;;;;;;13.18;41.47;100391.72;4385074;32;34245;-89
2022/04/11 08:58:05;;;;;;;;;;;;;;;12.88;40.86;100391.91;4385206;32;34185;-90
2022/04/11 09:00:48;;;;;;;;;;;;;;;12.89;39.63;100388.25;4397652;32;35086;-87
2022/04/11 09:03:20;;;;;;;;;;;;;;;13.11;39.88;100391.47;4385262;32;33839;-89
2022/04/11 09:06:09;;;;;;;;;;;;;;;13.19;41.25;100383.56;4397576;32;33280;-87
2022/04/11 09:08:57;;;;;;;;;;;;;;;13.43;40.21;100391.06;4398201;32;34338;-86
2022/04/11 09:11:29;;;;;;;;;;;;;;;13.50;40.13;100387.62;4398063;32;34698;-89
2022/04/11 09:14:00;;;;;;;;;;;;;;;13.69;40.42;100387.53;4399732;32;34676;-89
2022/04/11 09:16:51;;;;;;;;;;;;;;;13.65;40.14;100388.84;4387525;32;32387;-89
2022/04/11 09:19:31;;;;;;;;;;;;;;;13.80;38.24;100391.84;4397745;32;34112;-90
2022/04/11 09:22:30;;;;;;;;;;;;;;;13.99;39.38;100386.34;4398401;32;35278;-88
2022/04/11 09:25:07;;;;;;;;;;;;;;;13.95;37.85;100385.00;4385340;32;34333;-90
2022/04/11 09:27:37;;;;;;;;;;;;;;;13.89;40.06;100377.56;4385987;32;33072;-88
2022/04/11 09:30:23;;;;;;;;;;;;;;;14.20;38.81;100386.94;4386232;32;34941;-86
2022/04/11 09:33:08;;;;;;;;;;;;;;;13.68;38.08;100393.03;4399609;32;34937;-87
2022/04/11 09:35:44;;;;;;;;;;;;;;;14.01;38.92;100382.56;4397880;32;33965;-87
2022/04/11 09:38:16;;;;;;;;;;;;;;;14.24;39.41;100381.12;4398640;32;32753;-92
2022/04/11 09:40:48;;;;;;;;;;;;;;;13.99;38.60;100381.88;4387350;32;33553;-86
2022/04/11 09:43:36;;;;;;;;;;;;;;;14.02;37.53;100372.66;4399435;32;36483;-87
2022/04/11 09:46:23;;;;;;;;;;;;;;;14.47;38.04;100368.97;4384173;32;34296;-90
2022/04/11 09:49:08;;;;;;;;;;;;;;;14.52;36.78;100372.84;4397262;32;33150;-89
2022/04/11 09:52:07;;;;;;;;;;;;;;;14.56;37.24;100368.03;4399843;32;33484;-89
2022/04/11 09:54:56;;;;;;;;;;;;;;;14.58;36.44;100382.91;4400848;32;35350;-89
2022/04/11 09:57:32;;;;;;;;;;;;;;;13.92;37.44;100375.44;4385984;32;33459;-89
2022/04/11 10:00:36;;;;;;;;;;;;;;;14.01;37.11;100385.22;4399096;32;32338;-88
2022/04/11 10:03:06;;;;;;;;;;;;;;;13.86;38.08;100385.91;4398785;32;33406;-90
2022/04/11 10:05:36;;;;;;;;;;;;;;;14.05;36.40;100391.94;4398351;32;35305;-88
2022/04/11 10:08:25;;;;;;;;;;;;;;;13.59;36.83;100383.25;4398223;32;33971;-87
2022/04/11 10:10:56;;;;;;;;;;;;;;;13.54;36.85;100375.66;4398014;32;33902;-87
2022/04/11 10:13:26;;;;;;;;;;;;;;;13.65;38.51;100371.94;4397085;32;34553;-88
2022/04/11 10:15:58;;;;;;;;;;;;;;;13.66;36.51;100379.81;4396985;32;34983;-88
2022/04/11 10:18:27;;;;;;;;;;;;;;;14.04;37.22;100379.56;4397363;32;34677;-91
2022/04/11 10:21:03;;;;;;;;;;;;;;;14.41;34.45;100382.13;4384286;32;33603;-86
2022/04/11 10:23:52;;;;;;;;;;;;;;;14.29;33.83;100376.16;4397440;32;34375;-88
2022/04/11 10:26:46;;;;;;;;;;;;;;;14.00;34.57;100383.53;4371995;32;34223;-84
2022/04/11 10:29:37;;;;;;;;;;;;;;;14.20;35.73;100386.94;4386112;32;34005;-86
2022/04/11 10:32:27;;;;;;;;;;;;;;;14.40;37.21;100373.25;4398748;32;32807;-85
2022/04/11 10:34:58;;;;;;;;;;;;;;;14.84;33.57;100372.25;4384491;32;33763;-85
2022/04/11 10:37:41;;;;;;;;;;;;;;;14.98;31.02;100367.16;4397667;32;34719;-87
2022/04/11 10:40:15;;;;;;;;;;;;;;;15.04;30.47;100366.50;4385149;32;34405;-84
2022/04/11 10:43:04;;;;;;;;;;;;;;;14.89;29.39;100368.09;4398350;32;34113;-85
2022/04/11 10:45:57;;;;;;;;;;;;;;;14.17;32.60;100382.72;4396595;32;32616;-87
2022/04/11 10:48:44;;;;;;;;;;;;;;;14.21;32.76;100381.44;4384808;32;34961;-86
2022/04/11 10:51:27;;;;;;;;;;;;;;;14.37;30.95;100376.25;4398719;32;34789;-87
2022/04/11 10:54:21;;;;;;;;;;;;;;;14.21;30.95;100370.72;4374042;32;33648;-86
2022/04/11 10:57:10;;;;;;;;;;;;;;;14.67;32.08;100367.78;4398685;32;33648;-88
2022/04/11 10:59:56;;;;;;;;;;;;;;;14.99;31.82;100371.50;4384251;32;34931;-85
2022/04/11 11:05:38;;;;;;;;;;;;;;;15.28;30.53;100374.69;4384252;32;32406;-88
2022/04/11 11:08:11;;;;;;;;;;;;;;;15.00;29.99;100372.34;4384622;32;32657;-87
2022/04/11 11:11:00;;;;;;;;;;;;;;;14.68;29.29;100367.62;4398446;32;35250;-87
2022/04/11 11:13:48;;;;;;;;;;;;;;;15.29;30.49;100354.91;4396634;32;35320;-86
2022/04/11 11:16:36;;;;;;;;;;;;;;;15.04;29.47;100366.50;4394744;32;31912;-85
2022/04/11 11:19:18;;;;;;;;;;;;;;;15.45;29.54;100360.38;4385755;32;33061;-88
2022/04/11 11:22:02;;;;;;;;;;;;;;;15.48;29.66;100353.88;4384664;32;34171;-88
2022/04/11 11:25:12;;;;;;;;;;;;;;;14.60;31.24;100358.69;4397953;32;33624;-86
2022/04/11 11:27:56;;;;;;;;;;;;;;;14.68;30.47;100353.38;4397504;32;33595;-86
2022/04/11 11:30:25;;;;;;;;;;;;;;;14.78;32.82;100356.78;4383844;32;34937;-85
2022/04/11 11:33:01;;;;;;;;;;;;;;;15.57;29.96;100345.66;4383782;32;34027;-86
2022/04/11 11:35:51;;;;;;;;;;;;;;;15.67;27.50;100345.56;4397147;32;34838;-87
2022/04/11 11:38:39;;;;;;;;;;;;;;;15.82;27.48;100350.13;4396985;32;33720;-89
2022/04/11 11:41:07;;;;;;;;;;;;;;;17.20;25.27;100333.78;4385224;32;34410;-89
2022/04/11 11:43:36;;;;;;;;;;;;;;;18.34;25.76;100337.41;4400211;32;35023;-89
2022/04/11 11:46:07;;;;;;;;;;;;;;;19.66;22.20;100329.25;4401731;32;36204;-88
2022/04/11 11:48:35;;;;;;;;;;;;;;;19.78;25.07;100325.88;4388507;32;32619;-91
2022/04/11 11:51:02;;;;;;;;;;;;;;;20.07;25.19;100331.22;4400359;32;34984;-89
2022/04/11 11:53:40;;;;;;;;;;;;;;;20.63;24.51;100325.75;4375284;32;33548;-93
2022/04/11 11:56:08;;;;;;;;;;;;;;;19.65;24.28;100336.50;4399955;32;34426;-88
2022/04/11 11:58:38;;;;;;;;;;;;;;;18.99;24.21;100327.69;4374518;32;33307;-88
2022/04/11 12:01:09;;;;;;;;;;;;;;;17.84;26.61;100331.66;4399918;32;32962;-93
2022/04/11 12:06:25;;;;;;;;;;;;;;;18.27;27.50;100320.25;4398465;32;34369;-90
2022/04/11 12:08:58;;;;;;;;;;;;;;;19.35;25.29;100318.69;4399526;32;32917;-91
2022/04/11 12:11:29;;;;;;;;;;;;;;;19.40;25.22;100312.72;4386760;32;33814;-90
2022/04/11 12:14:08;;;;;;;;;;;;;;;19.50;25.65;100313.25;4399044;32;36488;-88
2022/04/11 12:16:37;;;;;;;;;;;;;;;19.49;23.92;100317.84;4398169;32;34324;-90
2022/04/11 12:19:09;;;;;;;;;;;;;;;19.33;23.78;100320.75;4374092;32;31971;-89
2022/04/11 12:21:37;;;;;;;;;;;;;;;19.06;24.71;100315.97;4398774;32;33526;-89
2022/04/11 12:24:05;;;;;;;;;;;;;;;18.58;24.20;100323.69;4374477;32;36290;-92
2022/04/11 12:26:35;;;;;;;;;;;;;;;19.19;24.27;100318.03;4385991;32;34206;-90
2022/04/11 12:29:11;;;;;;;;;;;;;;;19.49;25.46;100301.66;4386126;32;33439;-85
2022/04/11 12:31:59;;;;;;;;;;;;;;;19.36;24.38;100306.03;4361797;32;33235;-87
2022/04/11 12:34:33;;;;;;;;;;;;;;;18.73;25.20;100303.03;4400116;32;35997;-91
2022/04/11 12:37:22;;;;;;;;;;;;;;;18.50;24.21;100294.97;4372374;32;33495;-86
2022/04/11 12:39:57;;;;;;;;;;;;;;;18.73;25.78;100289.53;4399924;32;33782;-91
2022/04/11 12:42:26;;;;;;;;;;;;;;;18.89;23.21;100287.50;4387484;32;33871;-93
2022/04/11 12:45:19;;;;;;;;;;;;;;;19.08;22.93;100286.12;4399101;32;34760;-91
2022/04/11 12:48:03;;;;;;;;;;;;;;;18.97;23.01;100297.38;4400592;32;34661;-88
2022/04/11 12:50:30;;;;;;;;;;;;;;;17.65;25.53;100289.03;4386244;32;32955;-89
2022/04/11 12:53:29;;;;;;;;;;;;;;;17.42;24.96;100292.69;4388529;32;32816;-91
2022/04/11 12:56:07;;;;;;;;;;;;;;;17.20;26.23;100298.81;4386356;32;35666;-87
2022/04/11 12:58:39;;;;;;;;;;;;;;;17.39;25.90;100293.06;4397985;32;34417;-90
2022/04/11 13:01:15;;;;;;;;;;;;;;;16.99;26.73;100291.34;4374967;32;33051;-89
2022/04/11 13:03:44;;;;;;;;;;;;;;;16.94;26.65;100285.66;4400028;32;33544;-87
2022/04/11 13:06:12;;;;;;;;;;;;;;;16.46;27.89;100290.28;4398093;32;35297;-86
2022/04/11 13:08:40;;;;;;;;;;;;;;;16.57;26.66;100290.78;4386010;32;33451;-88
2022/04/11 13:11:10;;;;;;;;;;;;;;;16.43;26.21;100291.47;4373600;32;33139;-87
2022/04/11 13:13:41;;;;;;;;;;;;;;;16.45;26.42;100277.87;4398614;32;33181;-89
2022/04/11 13:18:57;;;;;;;;;;;;;;;16.66;27.00;100280.84;4400229;32;34760;-84
2022/04/11 13:21:25;;;;;;;;;;;;;;;16.40;26.73;100273.00;4398730;32;33606;-86
2022/04/11 13:23:53;;;;;;;;;;;;;;;16.86;26.62;100269.56;4383636;32;33463;-85
2022/04/11 13:26:21;;;;;;;;;;;;;;;16.53;25.96;100272.50;4385537;32;34846;-88
2022/04/11 13:29:11;;;;;;;;;;;;;;;16.69;28.20;100273.28;4397583;32;34579;-89
2022/04/11 13:31:59;;;;;;;;;;;;;;;17.07;26.82;100267.13;4398339;32;32675;-86
2022/04/11 13:34:27;;;;;;;;;;;;;;;17.52;25.83;100264.56;4395566;32;34192;-87
2022/04/11 13:36:55;;;;;;;;;;;;;;;17.54;25.10;100260.69;4397901;32;35320;-89
2022/04/11 13:39:44;;;;;;;;;;;;;;;17.57;23.72;100254.97;4385662;32;34198;-87
2022/04/11 13:42:32;;;;;;;;;;;;;;;18.33;24.55;100254.91;4384524;32;32613;-87
2022/04/11 13:45:20;;;;;;;;;;;;;;;18.12;22.50;100246.63;4397911;32;33328;-87
2022/04/11 13:48:09;;;;;;;;;;;;;;;18.41;25.92;100254.84;4397708;32;35417;-91
2022/04/11 13:50:38;;;;;;;;;;;;;;;18.71;21.01;100241.19;4383860;32;35131;-90